sensor_id;sensor_type;location;lat;lon;timestamp;temperature;humidity
32107;DHT22;18622;51.998;10.440;2023-07-20T03:32:38;16.60;99.90
32107;DHT22;18622;51.998;10.440;2023-07-20T03:35:07;16.60;99.90
32107;DHT22;18622;51.998;10.440;2023-07-20T03:37:34;16.60;99.90
32107;DHT22;18622;51.998;10.440;2023-07-20T03:40:03;16.50;99.90
32107;DHT22;18622;51.998;10.440;2023-07-20T03:42:31;16.50;99.90
32107;DHT22;18622;51.998;10.440;2023-07-20T03:44:59;16.50;99.90
32107;DHT22;18622;51.998;10.440;2023-07-20T03:47:26;16.50;99.90
32107;DHT22;18622;51.998;10.440;2023-07-20T03:49:54;16.60;99.90
32107;DHT22;18622;51.998;10.440;2023-07-20T03:52:22;16.60;99.90
32107;DHT22;18622;51.998;10.440;2023-07-20T03:54:50;16.60;99.90
32107;DHT22;18622;51.998;10.440;2023-07-20T03:57:20;16.60;99.90
32107;DHT22;18622;51.998;10.440;2023-07-20T03:59:48;16.50;99.90
32107;DHT22;18622;51.998;10.440;2023-07-20T04:02:16;16.50;99.90
32107;DHT22;18622;51.998;10.440;2023-07-20T04:04:44;16.50;99.90
32107;DHT22;18622;51.998;10.440;2023-07-20T04:07:12;16.50;99.90
32107;DHT22;18622;51.998;10.440;2023-07-20T04:09:39;16.50;99.90
32107;DHT22;18622;51.998;10.440;2023-07-20T04:12:07;16.60;99.90
32107;DHT22;18622;51.998;10.440;2023-07-20T04:14:35;16.70;99.90
32107;DHT22;18622;51.998;10.440;2023-07-20T04:17:03;16.80;99.90
32107;DHT22;18622;51.998;10.440;2023-07-20T04:19:31;16.90;99.90
32107;DHT22;18622;51.998;10.440;2023-07-20T04:21:59;17.00;99.90
32107;DHT22;18622;51.998;10.440;2023-07-20T04:24:27;17.10;99.90
32107;DHT22;18622;51.998;10.440;2023-07-20T04:26:54;17.20;99.90
32107;DHT22;18622;51.998;10.440;2023-07-20T04:29:22;17.20;99.90
32107;DHT22;18622;51.998;10.440;2023-07-20T04:31:50;17.30;99.90
32107;DHT22;18622;51.998;10.440;2023-07-20T04:34:18;17.40;99.90
32107;DHT22;18622;51.998;10.440;2023-07-20T04:36:46;17.40;99.90
32107;DHT22;18622;51.998;10.440;2023-07-20T04:39:13;17.50;99.90
32107;DHT22;18622;51.998;10.440;2023-07-20T04:41:41;17.60;99.90
32107;DHT22;18622;51.998;10.440;2023-07-20T04:44:09;17.70;99.90
32107;DHT22;18622;51.998;10.440;2023-07-20T04:46:37;17.80;99.90
32107;DHT22;18622;51.998;10.440;2023-07-20T04:49:05;18.00;99.90
32107;DHT22;18622;51.998;10.440;2023-07-20T04:51:32;18.30;99.90
32107;DHT22;18622;51.998;10.440;2023-07-20T04:54:00;18.50;99.90
32107;DHT22;18622;51.998;10.440;2023-07-20T04:56:28;18.70;99.90
32107;DHT22;18622;51.998;10.440;2023-07-20T04:58:56;18.80;99.90
32107;DHT22;18622;51.998;10.440;2023-07-20T05:01:23;18.80;99.90
32107;DHT22;18622;51.998;10.440;2023-07-20T05:03:53;19.00;99.90
32107;DHT22;18622;51.998;10.440;2023-07-20T05:06:21;19.00;99.90
32107;DHT22;18622;51.998;10.440;2023-07-20T05:08:48;19.10;99.90
32107;DHT22;18622;51.998;10.440;2023-07-20T05:11:16;19.10;99.90
32107;DHT22;18622;51.998;10.440;2023-07-20T05:13:44;19.10;99.90
32107;DHT22;18622;51.998;10.440;2023-07-20T05:16:12;19.10;99.90
32107;DHT22;18622;51.998;10.440;2023-07-20T05:18:40;19.20;99.90
32107;DHT22;18622;51.998;10.440;2023-07-20T05:21:07;19.10;99.90
32107;DHT22;18622;51.998;10.440;2023-07-20T05:23:35;19.10;99.90
32107;DHT22;18622;51.998;10.440;2023-07-20T05:26:03;19.00;99.90
32107;DHT22;18622;51.998;10.440;2023-07-20T05:28:31;19.00;99.90
32107;DHT22;18622;51.998;10.440;2023-07-20T05:30:59;19.00;99.90
32107;DHT22;18622;51.998;10.440;2023-07-20T05:33:27;18.90;99.90
32107;DHT22;18622;51.998;10.440;2023-07-20T05:35:55;18.80;99.90
32107;DHT22;18622;51.998;10.440;2023-07-20T05:38:22;18.80;99.90
32107;DHT22;18622;51.998;10.440;2023-07-20T05:40:50;18.80;99.90
32107;DHT22;18622;51.998;10.440;2023-07-20T05:43:18;18.70;99.90
32107;DHT22;18622;51.998;10.440;2023-07-20T05:45:46;18.60;99.90
32107;DHT22;18622;51.998;10.440;2023-07-20T05:48:14;18.50;99.90
32107;DHT22;18622;51.998;10.440;2023-07-20T05:50:43;18.10;99.90
32107;DHT22;18622;51.998;10.440;2023-07-20T05:53:11;17.70;99.90
32107;DHT22;18622;51.998;10.440;2023-07-20T05:55:38;17.40;99.90
32107;DHT22;18622;51.998;10.440;2023-07-20T05:58:07;17.00;99.90
32107;DHT22;18622;51.998;10.440;2023-07-20T06:00:34;16.60;99.90
32107;DHT22;18622;51.998;10.440;2023-07-20T06:03:02;16.40;99.90
32107;DHT22;18622;51.998;10.440;2023-07-20T06:05:30;16.20;99.90
32107;DHT22;18622;51.998;10.440;2023-07-20T06:07:58;16.10;99.90
32107;DHT22;18622;51.998;10.440;2023-07-20T06:10:27;16.10;99.90
32107;DHT22;18622;51.998;10.440;2023-07-20T06:12:54;16.20;99.90
32107;DHT22;18622;51.998;10.440;2023-07-20T06:15:27;16.20;99.90
32107;DHT22;18622;51.998;10.440;2023-07-20T06:17:55;16.30;99.90
32107;DHT22;18622;51.998;10.440;2023-07-20T06:20:24;16.20;99.90
32107;DHT22;18622;51.998;10.440;2023-07-20T06:22:52;16.20;99.90
32107;DHT22;18622;51.998;10.440;2023-07-20T06:25:20;16.20;99.90
32107;DHT22;18622;51.998;10.440;2023-07-20T06:27:49;16.30;99.90
32107;DHT22;18622;51.998;10.440;2023-07-20T06:30:20;16.30;99.90
32107;DHT22;18622;51.998;10.440;2023-07-20T06:32:48;16.40;99.90
32107;DHT22;18622;51.998;10.440;2023-07-20T06:35:17;16.60;99.90
32107;DHT22;18622;51.998;10.440;2023-07-20T06:37:44;16.70;99.90
32107;DHT22;18622;51.998;10.440;2023-07-20T06:40:12;16.80;99.90
32107;DHT22;18622;51.998;10.440;2023-07-20T06:42:40;16.90;99.90
32107;DHT22;18622;51.998;10.440;2023-07-20T06:45:08;17.10;99.90
32107;DHT22;18622;51.998;10.440;2023-07-20T06:47:38;17.30;99.90
32107;DHT22;18622;51.998;10.440;2023-07-20T06:50:07;17.30;99.90
32107;DHT22;18622;51.998;10.440;2023-07-20T06:52:35;17.40;99.90
32107;DHT22;18622;51.998;10.440;2023-07-20T06:55:03;17.30;99.90
32107;DHT22;18622;51.998;10.440;2023-07-20T06:57:31;17.40;99.90
32107;DHT22;18622;51.998;10.440;2023-07-20T06:59:58;17.30;99.90
32107;DHT22;18622;51.998;10.440;2023-07-20T07:02:26;17.20;99.90
32107;DHT22;18622;51.998;10.440;2023-07-20T07:04:54;17.20;99.90
32107;DHT22;18622;51.998;10.440;2023-07-20T07:07:22;17.10;99.90
32107;DHT22;18622;51.998;10.440;2023-07-20T07:09:50;17.00;99.90
32107;DHT22;18622;51.998;10.440;2023-07-20T07:12:18;17.10;99.90
32107;DHT22;18622;51.998;10.440;2023-07-20T07:14:46;17.10;99.90
32107;DHT22;18622;51.998;10.440;2023-07-20T07:17:13;17.10;99.90
32107;DHT22;18622;51.998;10.440;2023-07-20T07:19:41;17.10;99.90
32107;DHT22;18622;51.998;10.440;2023-07-20T07:22:09;17.10;99.90
32107;DHT22;18622;51.998;10.440;2023-07-20T07:24:37;17.20;99.90
32107;DHT22;18622;51.998;10.440;2023-07-20T07:27:05;17.20;99.90
32107;DHT22;18622;51.998;10.440;2023-07-20T07:29:33;17.30;99.90
32107;DHT22;18622;51.998;10.440;2023-07-20T07:32:00;17.30;99.90
32107;DHT22;18622;51.998;10.440;2023-07-20T07:34:28;17.20;99.90
32107;DHT22;18622;51.998;10.440;2023-07-20T07:36:56;17.30;99.90
32107;DHT22;18622;51.998;10.440;2023-07-20T07:39:24;17.30;99.90
32107;DHT22;18622;51.998;10.440;2023-07-20T07:41:52;17.20;99.90
32107;DHT22;18622;51.998;10.440;2023-07-20T07:44:19;17.20;99.90
32107;DHT22;18622;51.998;10.440;2023-07-20T07:46:47;17.20;99.90
32107;DHT22;18622;51.998;10.440;2023-07-20T07:49:16;17.20;99.90
32107;DHT22;18622;51.998;10.440;2023-07-20T07:51:45;17.10;99.90
32107;DHT22;18622;51.998;10.440;2023-07-20T07:54:13;17.20;99.90
32107;DHT22;18622;51.998;10.440;2023-07-20T07:56:41;17.40;99.90
32107;DHT22;18622;51.998;10.440;2023-07-20T07:59:10;17.50;99.90
32107;DHT22;18622;51.998;10.440;2023-07-20T08:01:38;17.50;99.90
32107;DHT22;18622;51.998;10.440;2023-07-20T08:04:06;17.70;99.90
32107;DHT22;18622;51.998;10.440;2023-07-20T08:06:34;17.90;99.90
32107;DHT22;18622;51.998;10.440;2023-07-20T08:09:02;18.00;99.90
32107;DHT22;18622;51.998;10.440;2023-07-20T08:11:30;18.00;99.90
32107;DHT22;18622;51.998;10.440;2023-07-20T08:14:00;18.00;99.90
32107;DHT22;18622;51.998;10.440;2023-07-20T08:16:28;18.00;99.90
32107;DHT22;18622;51.998;10.440;2023-07-20T08:18:56;18.00;99.90
32107;DHT22;18622;51.998;10.440;2023-07-20T08:21:23;18.20;99.90
32107;DHT22;18622;51.998;10.440;2023-07-20T08:23:51;18.40;99.90
32107;DHT22;18622;51.998;10.440;2023-07-20T08:26:19;18.70;99.90
32107;DHT22;18622;51.998;10.440;2023-07-20T08:28:48;19.10;99.90
32107;DHT22;18622;51.998;10.440;2023-07-20T08:31:16;19.40;99.90
32107;DHT22;18622;51.998;10.440;2023-07-20T08:33:44;19.60;99.90
32107;DHT22;18622;51.998;10.440;2023-07-20T08:36:12;19.90;99.90
32107;DHT22;18622;51.998;10.440;2023-07-20T08:38:40;20.00;99.90
32107;DHT22;18622;51.998;10.440;2023-07-20T08:41:09;20.10;99.90
32107;DHT22;18622;51.998;10.440;2023-07-20T08:43:37;20.00;99.90
32107;DHT22;18622;51.998;10.440;2023-07-20T08:46:07;19.80;99.90
32107;DHT22;18622;51.998;10.440;2023-07-20T08:48:35;19.60;99.90
32107;DHT22;18622;51.998;10.440;2023-07-20T08:51:04;19.60;99.90
32107;DHT22;18622;51.998;10.440;2023-07-20T08:53:33;19.70;99.90
32107;DHT22;18622;51.998;10.440;2023-07-20T08:56:02;19.90;99.90
32107;DHT22;18622;51.998;10.440;2023-07-20T08:58:31;20.30;99.90
32107;DHT22;18622;51.998;10.440;2023-07-20T09:01:00;20.70;99.90
32107;DHT22;18622;51.998;10.440;2023-07-20T09:03:28;21.10;99.90
32107;DHT22;18622;51.998;10.440;2023-07-20T09:05:56;21.30;99.90
32107;DHT22;18622;51.998;10.440;2023-07-20T09:08:24;21.40;99.90
32107;DHT22;18622;51.998;10.440;2023-07-20T09:10:52;21.70;99.90
32107;DHT22;18622;51.998;10.440;2023-07-20T09:13:20;21.90;99.90
32107;DHT22;18622;51.998;10.440;2023-07-20T09:15:53;21.80;98.20
32107;DHT22;18622;51.998;10.440;2023-07-20T09:18:28;22.00;99.60
32107;DHT22;18622;51.998;10.440;2023-07-20T09:21:03;22.40;99.90
32107;DHT22;18622;51.998;10.440;2023-07-20T09:23:39;22.90;98.60
32107;DHT22;18622;51.998;10.440;2023-07-20T09:26:10;23.00;97.50
32107;DHT22;18622;51.998;10.440;2023-07-20T09:28:42;23.10;95.90
32107;DHT22;18622;51.998;10.440;2023-07-20T09:31:17;23.10;95.60
32107;DHT22;18622;51.998;10.440;2023-07-20T09:33:46;23.30;96.20
32107;DHT22;18622;51.998;10.440;2023-07-20T09:36:15;23.60;95.40
32107;DHT22;18622;51.998;10.440;2023-07-20T09:38:43;23.90;94.00
32107;DHT22;18622;51.998;10.440;2023-07-20T09:41:14;24.00;94.30
32107;DHT22;18622;51.998;10.440;2023-07-20T09:43:42;24.00;91.60
32107;DHT22;18622;51.998;10.440;2023-07-20T09:46:10;24.00;92.00
32107;DHT22;18622;51.998;10.440;2023-07-20T09:48:38;24.20;91.30
32107;DHT22;18622;51.998;10.440;2023-07-20T09:51:07;24.10;91.00
32107;DHT22;18622;51.998;10.440;2023-07-20T09:53:36;24.30;90.30
32107;DHT22;18622;51.998;10.440;2023-07-20T09:56:05;24.40;90.90
32107;DHT22;18622;51.998;10.440;2023-07-20T09:58:33;24.90;89.70
32107;DHT22;18622;51.998;10.440;2023-07-20T10:01:03;25.40;85.30
32107;DHT22;18622;51.998;10.440;2023-07-20T10:03:33;25.80;83.30
32107;DHT22;18622;51.998;10.440;2023-07-20T10:06:08;26.20;82.70
32107;DHT22;18622;51.998;10.440;2023-07-20T10:08:40;26.80;79.20
32107;DHT22;18622;51.998;10.440;2023-07-20T10:11:09;27.30;74.50
32107;DHT22;18622;51.998;10.440;2023-07-20T10:13:39;27.80;73.70
32107;DHT22;18622;51.998;10.440;2023-07-20T10:16:10;28.30;73.40
32107;DHT22;18622;51.998;10.440;2023-07-20T10:19:05;28.80;70.40
32107;DHT22;18622;51.998;10.440;2023-07-20T10:21:45;29.30;67.00
32107;DHT22;18622;51.998;10.440;2023-07-20T10:24:13;29.80;64.20
32107;DHT22;18622;51.998;10.440;2023-07-20T10:26:40;29.70;62.90
32107;DHT22;18622;51.998;10.440;2023-07-20T10:29:08;29.30;62.10
32107;DHT22;18622;51.998;10.440;2023-07-20T10:31:37;28.60;64.40
32107;DHT22;18622;51.998;10.440;2023-07-20T10:34:05;28.40;63.30
32107;DHT22;18622;51.998;10.440;2023-07-20T10:36:35;28.40;64.30
32107;DHT22;18622;51.998;10.440;2023-07-20T10:39:04;28.80;65.60
32107;DHT22;18622;51.998;10.440;2023-07-20T10:41:39;29.30;64.70
32107;DHT22;18622;51.998;10.440;2023-07-20T10:44:07;30.00;63.40
32107;DHT22;18622;51.998;10.440;2023-07-20T10:49:11;31.40;59.20
32107;DHT22;18622;51.998;10.440;2023-07-20T10:51:43;31.60;53.60
32107;DHT22;18622;51.998;10.440;2023-07-20T10:56:49;31.80;53.10
32107;DHT22;18622;51.998;10.440;2023-07-20T11:01:57;32.20;51.90
32107;DHT22;18622;51.998;10.440;2023-07-20T11:04:43;32.80;51.00
32107;DHT22;18622;51.998;10.440;2023-07-20T11:07:16;32.80;49.70
32107;DHT22;18622;51.998;10.440;2023-07-20T11:09:44;32.20;49.10
32107;DHT22;18622;51.998;10.440;2023-07-20T11:12:16;32.00;49.70
32107;DHT22;18622;51.998;10.440;2023-07-20T11:14:55;32.10;49.20
32107;DHT22;18622;51.998;10.440;2023-07-20T11:17:31;32.00;49.50
32107;DHT22;18622;51.998;10.440;2023-07-20T11:20:00;31.30;50.00
32107;DHT22;18622;51.998;10.440;2023-07-20T11:22:31;30.30;52.90
32107;DHT22;18622;51.998;10.440;2023-07-20T11:24:59;29.90;52.70
32107;DHT22;18622;51.998;10.440;2023-07-20T11:27:27;30.30;52.80
32107;DHT22;18622;51.998;10.440;2023-07-20T11:29:56;31.20;50.20
32107;DHT22;18622;51.998;10.440;2023-07-20T11:32:24;31.80;48.80
32107;DHT22;18622;51.998;10.440;2023-07-20T11:34:52;32.10;48.10
32107;DHT22;18622;51.998;10.440;2023-07-20T11:37:20;32.30;47.00
32107;DHT22;18622;51.998;10.440;2023-07-20T11:39:48;32.40;48.70
32107;DHT22;18622;51.998;10.440;2023-07-20T11:42:15;32.30;47.00
32107;DHT22;18622;51.998;10.440;2023-07-20T11:44:44;31.80;45.90
32107;DHT22;18622;51.998;10.440;2023-07-20T11:47:12;31.50;47.40
32107;DHT22;18622;51.998;10.440;2023-07-20T11:49:41;31.90;47.80
32107;DHT22;18622;51.998;10.440;2023-07-20T11:52:11;32.60;45.50
32107;DHT22;18622;51.998;10.440;2023-07-20T11:54:38;33.20;45.60
32107;DHT22;18622;51.998;10.440;2023-07-20T11:57:06;34.00;44.40
32107;DHT22;18622;51.998;10.440;2023-07-20T11:59:34;34.10;41.00
32107;DHT22;18622;51.998;10.440;2023-07-20T12:02:02;33.70;41.70
32107;DHT22;18622;51.998;10.440;2023-07-20T12:04:31;33.90;41.10
32107;DHT22;18622;51.998;10.440;2023-07-20T12:07:00;33.60;41.10
32107;DHT22;18622;51.998;10.440;2023-07-20T12:09:28;33.10;40.90
32107;DHT22;18622;51.998;10.440;2023-07-20T12:11:55;32.30;42.40
32107;DHT22;18622;51.998;10.440;2023-07-20T12:14:25;32.30;42.50
32107;DHT22;18622;51.998;10.440;2023-07-20T12:16:53;32.80;40.20
32107;DHT22;18622;51.998;10.440;2023-07-20T12:19:24;33.40;41.20
32107;DHT22;18622;51.998;10.440;2023-07-20T12:21:56;34.40;40.90
32107;DHT22;18622;51.998;10.440;2023-07-20T12:24:23;35.30;39.70
32107;DHT22;18622;51.998;10.440;2023-07-20T12:26:55;35.00;37.90
32107;DHT22;18622;51.998;10.440;2023-07-20T12:29:21;34.60;38.30
32107;DHT22;18622;51.998;10.440;2023-07-20T12:31:49;34.10;38.70
32107;DHT22;18622;51.998;10.440;2023-07-20T12:34:17;33.30;39.20
32107;DHT22;18622;51.998;10.440;2023-07-20T12:36:44;32.80;40.10
32107;DHT22;18622;51.998;10.440;2023-07-20T12:39:12;33.20;41.00
32107;DHT22;18622;51.998;10.440;2023-07-20T12:41:40;33.50;41.70
32107;DHT22;18622;51.998;10.440;2023-07-20T12:44:08;33.30;40.90
32107;DHT22;18622;51.998;10.440;2023-07-20T12:46:36;32.70;42.30
32107;DHT22;18622;51.998;10.440;2023-07-20T12:49:04;32.10;42.10
32107;DHT22;18622;51.998;10.440;2023-07-20T12:51:31;31.40;41.60
32107;DHT22;18622;51.998;10.440;2023-07-20T12:53:59;30.60;43.10
32107;DHT22;18622;51.998;10.440;2023-07-20T12:56:27;29.80;43.50
32107;DHT22;18622;51.998;10.440;2023-07-20T12:58:55;29.20;44.90
32107;DHT22;18622;51.998;10.440;2023-07-20T13:01:23;28.80;44.80
32107;DHT22;18622;51.998;10.440;2023-07-20T13:03:51;28.40;46.30
32107;DHT22;18622;51.998;10.440;2023-07-20T13:06:18;28.10;44.60
32107;DHT22;18622;51.998;10.440;2023-07-20T13:08:46;27.90;46.20
32107;DHT22;18622;51.998;10.440;2023-07-20T13:11:14;27.90;46.40
32107;DHT22;18622;51.998;10.440;2023-07-20T13:13:42;28.30;45.00
32107;DHT22;18622;51.998;10.440;2023-07-20T13:16:10;29.40;44.30
32107;DHT22;18622;51.998;10.440;2023-07-20T13:18:37;30.60;43.70
32107;DHT22;18622;51.998;10.440;2023-07-20T13:21:05;31.40;43.60
32107;DHT22;18622;51.998;10.440;2023-07-20T13:23:34;31.60;43.30
32107;DHT22;18622;51.998;10.440;2023-07-20T13:26:01;31.30;41.70
32107;DHT22;18622;51.998;10.440;2023-07-20T13:28:29;30.40;42.50
32107;DHT22;18622;51.998;10.440;2023-07-20T13:30:57;29.40;44.40
32107;DHT22;18622;51.998;10.440;2023-07-20T13:33:25;28.60;46.00
32107;DHT22;18622;51.998;10.440;2023-07-20T13:35:53;28.10;45.80
32107;DHT22;18622;51.998;10.440;2023-07-20T13:38:21;27.90;47.50
32107;DHT22;18622;51.998;10.440;2023-07-20T13:40:49;28.60;48.90
32107;DHT22;18622;51.998;10.440;2023-07-20T13:43:17;30.20;45.20
32107;DHT22;18622;51.998;10.440;2023-07-20T13:45:44;31.70;42.70
32107;DHT22;18622;51.998;10.440;2023-07-20T13:48:12;32.80;42.40
32107;DHT22;18622;51.998;10.440;2023-07-20T13:50:40;33.60;41.10
32107;DHT22;18622;51.998;10.440;2023-07-20T13:53:08;33.50;39.40
32107;DHT22;18622;51.998;10.440;2023-07-20T13:55:36;33.10;40.20
32107;DHT22;18622;51.998;10.440;2023-07-20T13:58:05;32.40;41.70
32107;DHT22;18622;51.998;10.440;2023-07-20T14:00:32;32.10;41.70
32107;DHT22;18622;51.998;10.440;2023-07-20T14:03:01;32.40;40.90
32107;DHT22;18622;51.998;10.440;2023-07-20T14:05:29;32.60;40.40
32107;DHT22;18622;51.998;10.440;2023-07-20T14:07:57;32.40;40.50
32107;DHT22;18622;51.998;10.440;2023-07-20T14:10:25;32.40;40.40
32107;DHT22;18622;51.998;10.440;2023-07-20T14:12:52;32.50;42.30
32107;DHT22;18622;51.998;10.440;2023-07-20T14:15:20;32.70;42.60
32107;DHT22;18622;51.998;10.440;2023-07-20T14:17:48;32.70;41.60
32107;DHT22;18622;51.998;10.440;2023-07-20T14:20:16;32.60;42.20
32107;DHT22;18622;51.998;10.440;2023-07-20T14:22:44;32.80;42.60
32107;DHT22;18622;51.998;10.440;2023-07-20T14:25:12;32.90;42.20
32107;DHT22;18622;51.998;10.440;2023-07-20T14:27:40;32.70;40.80
32107;DHT22;18622;51.998;10.440;2023-07-20T14:30:08;32.40;40.30
32107;DHT22;18622;51.998;10.440;2023-07-20T14:32:35;32.00;42.00
32107;DHT22;18622;51.998;10.440;2023-07-20T14:35:04;31.80;42.70
32107;DHT22;18622;51.998;10.440;2023-07-20T14:37:31;31.80;41.40
32107;DHT22;18622;51.998;10.440;2023-07-20T14:40:00;31.30;41.20
32107;DHT22;18622;51.998;10.440;2023-07-20T14:42:30;30.90;41.70
32107;DHT22;18622;51.998;10.440;2023-07-20T14:44:59;30.60;42.20
32107;DHT22;18622;51.998;10.440;2023-07-20T14:47:26;30.40;42.30
32107;DHT22;18622;51.998;10.440;2023-07-20T14:49:54;30.20;43.80
32107;DHT22;18622;51.998;10.440;2023-07-20T14:52:22;30.20;44.60
32107;DHT22;18622;51.998;10.440;2023-07-20T14:54:50;30.40;44.70
32107;DHT22;18622;51.998;10.440;2023-07-20T14:57:17;30.40;42.40
32107;DHT22;18622;51.998;10.440;2023-07-20T14:59:45;30.00;43.20
32107;DHT22;18622;51.998;10.440;2023-07-20T15:02:13;29.50;44.10
32107;DHT22;18622;51.998;10.440;2023-07-20T15:04:51;29.10;43.60
32107;DHT22;18622;51.998;10.440;2023-07-20T15:07:20;29.10;44.50
32107;DHT22;18622;51.998;10.440;2023-07-20T15:09:51;29.30;45.10
32107;DHT22;18622;51.998;10.440;2023-07-20T15:12:19;30.00;45.90
32107;DHT22;18622;51.998;10.440;2023-07-20T15:15:08;31.00;45.10
32107;DHT22;18622;51.998;10.440;2023-07-20T15:17:21;31.60;43.80
32107;DHT22;18622;51.998;10.440;2023-07-20T15:19:49;31.90;42.40
32107;DHT22;18622;51.998;10.440;2023-07-20T15:24:46;31.90;41.60
32107;DHT22;18622;51.998;10.440;2023-07-20T15:27:13;32.20;41.50
32107;DHT22;18622;51.998;10.440;2023-07-20T15:29:41;32.30;43.10
32107;DHT22;18622;51.998;10.440;2023-07-20T15:32:11;32.60;42.00
32107;DHT22;18622;51.998;10.440;2023-07-20T15:34:38;32.50;42.00
32107;DHT22;18622;51.998;10.440;2023-07-20T15:37:06;32.90;42.10
32107;DHT22;18622;51.998;10.440;2023-07-20T15:39:34;33.60;40.90
32107;DHT22;18622;51.998;10.440;2023-07-20T15:42:02;33.50;40.50
32107;DHT22;18622;51.998;10.440;2023-07-20T15:44:30;32.90;39.80
32107;DHT22;18622;51.998;10.440;2023-07-20T15:46:58;32.00;41.70
32107;DHT22;18622;51.998;10.440;2023-07-20T15:49:26;31.10;42.40
32107;DHT22;18622;51.998;10.440;2023-07-20T15:51:54;30.60;43.30
32107;DHT22;18622;51.998;10.440;2023-07-20T15:54:22;30.10;43.00
32107;DHT22;18622;51.998;10.440;2023-07-20T15:56:50;29.80;43.20
32107;DHT22;18622;51.998;10.440;2023-07-20T15:59:18;29.50;43.40
32107;DHT22;18622;51.998;10.440;2023-07-20T16:01:46;29.20;45.00
32107;DHT22;18622;51.998;10.440;2023-07-20T16:04:14;28.90;45.70
32107;DHT22;18622;51.998;10.440;2023-07-20T16:06:42;28.90;45.30
32107;DHT22;18622;51.998;10.440;2023-07-20T16:09:10;28.80;45.50
32107;DHT22;18622;51.998;10.440;2023-07-20T16:11:38;28.60;44.50
32107;DHT22;18622;51.998;10.440;2023-07-20T16:14:06;28.20;44.40
32107;DHT22;18622;51.998;10.440;2023-07-20T16:16:35;27.80;44.80
32107;DHT22;18622;51.998;10.440;2023-07-20T16:19:02;27.40;45.10
32107;DHT22;18622;51.998;10.440;2023-07-20T16:21:30;27.00;46.80
32107;DHT22;18622;51.998;10.440;2023-07-20T16:24:01;26.70;46.60
32107;DHT22;18622;51.998;10.440;2023-07-20T16:26:28;26.40;46.10
32107;DHT22;18622;51.998;10.440;2023-07-20T16:28:56;26.10;46.80
32107;DHT22;18622;51.998;10.440;2023-07-20T16:31:24;26.00;48.70
32107;DHT22;18622;51.998;10.440;2023-07-20T16:33:52;26.00;47.80
32107;DHT22;18622;51.998;10.440;2023-07-20T16:36:20;25.90;47.60
32107;DHT22;18622;51.998;10.440;2023-07-20T16:38:48;25.80;49.40
32107;DHT22;18622;51.998;10.440;2023-07-20T16:41:16;25.80;49.10
32107;DHT22;18622;51.998;10.440;2023-07-20T16:43:43;25.90;48.90
32107;DHT22;18622;51.998;10.440;2023-07-20T16:46:11;26.40;49.80
32107;DHT22;18622;51.998;10.440;2023-07-20T16:48:40;27.70;48.10
32107;DHT22;18622;51.998;10.440;2023-07-20T16:51:07;28.20;46.20
32107;DHT22;18622;51.998;10.440;2023-07-20T16:53:35;27.90;45.80
32107;DHT22;18622;51.998;10.440;2023-07-20T16:56:03;27.40;46.20
32107;DHT22;18622;51.998;10.440;2023-07-20T16:58:31;26.80;46.90
32107;DHT22;18622;51.998;10.440;2023-07-20T17:01:02;26.30;48.80
32107;DHT22;18622;51.998;10.440;2023-07-20T17:03:31;25.90;49.10
32107;DHT22;18622;51.998;10.440;2023-07-20T17:05:59;25.50;50.40
32107;DHT22;18622;51.998;10.440;2023-07-20T17:08:27;25.20;50.00
32107;DHT22;18622;51.998;10.440;2023-07-20T17:10:55;25.00;50.90
32107;DHT22;18622;51.998;10.440;2023-07-20T17:13:23;24.80;51.30
32107;DHT22;18622;51.998;10.440;2023-07-20T17:15:50;24.60;52.60
32107;DHT22;18622;51.998;10.440;2023-07-20T17:18:18;24.60;52.90
32107;DHT22;18622;51.998;10.440;2023-07-20T17:20:46;24.40;52.70
32107;DHT22;18622;51.998;10.440;2023-07-20T17:23:14;24.40;54.00
32107;DHT22;18622;51.998;10.440;2023-07-20T17:25:43;24.20;54.10
32107;DHT22;18622;51.998;10.440;2023-07-20T17:28:12;24.10;54.40
32107;DHT22;18622;51.998;10.440;2023-07-20T17:30:40;24.00;54.90
32107;DHT22;18622;51.998;10.440;2023-07-20T17:33:07;23.80;55.70
32107;DHT22;18622;51.998;10.440;2023-07-20T17:35:36;23.60;56.40
32107;DHT22;18622;51.998;10.440;2023-07-20T17:38:04;23.50;57.40
32107;DHT22;18622;51.998;10.440;2023-07-20T17:40:31;23.20;59.00
32107;DHT22;18622;51.998;10.440;2023-07-20T17:42:59;22.90;59.80
32107;DHT22;18622;51.998;10.440;2023-07-20T17:45:27;22.60;60.70
32107;DHT22;18622;51.998;10.440;2023-07-20T17:47:55;22.40;61.50
32107;DHT22;18622;51.998;10.440;2023-07-20T17:50:23;22.20;62.30
32107;DHT22;18622;51.998;10.440;2023-07-20T17:52:55;22.00;63.10
32107;DHT22;18622;51.998;10.440;2023-07-20T17:55:23;21.80;62.30
32107;DHT22;18622;51.998;10.440;2023-07-20T17:57:51;21.80;63.00
32107;DHT22;18622;51.998;10.440;2023-07-20T18:00:19;21.70;64.20
32107;DHT22;18622;51.998;10.440;2023-07-20T18:02:47;21.70;64.60
32107;DHT22;18622;51.998;10.440;2023-07-20T18:05:15;21.70;65.10
32107;DHT22;18622;51.998;10.440;2023-07-20T18:07:43;21.80;65.60
32107;DHT22;18622;51.998;10.440;2023-07-20T18:10:11;21.80;65.70
32107;DHT22;18622;51.998;10.440;2023-07-20T18:12:39;21.70;65.90
32107;DHT22;18622;51.998;10.440;2023-07-20T18:15:08;21.60;66.20
32107;DHT22;18622;51.998;10.440;2023-07-20T18:17:36;21.40;66.90
32107;DHT22;18622;51.998;10.440;2023-07-20T18:20:05;21.20;67.70
32107;DHT22;18622;51.998;10.440;2023-07-20T18:22:34;21.10;66.60
32107;DHT22;18622;51.998;10.440;2023-07-20T18:25:04;21.00;66.30
32107;DHT22;18622;51.998;10.440;2023-07-20T18:27:31;20.90;66.80
32107;DHT22;18622;51.998;10.440;2023-07-20T18:29:58;20.80;67.40
32107;DHT22;18622;51.998;10.440;2023-07-20T18:32:26;20.70;68.20
32107;DHT22;18622;51.998;10.440;2023-07-20T18:34:54;20.60;69.20
32107;DHT22;18622;51.998;10.440;2023-07-20T18:37:22;20.60;69.40
32107;DHT22;18622;51.998;10.440;2023-07-20T18:39:51;20.50;68.60
32107;DHT22;18622;51.998;10.440;2023-07-20T18:42:19;20.40;68.60
32107;DHT22;18622;51.998;10.440;2023-07-20T18:44:47;20.30;68.50
32107;DHT22;18622;51.998;10.440;2023-07-20T18:47:15;20.20;68.20
32107;DHT22;18622;51.998;10.440;2023-07-20T18:49:42;20.10;68.80
32107;DHT22;18622;51.998;10.440;2023-07-20T18:52:10;20.00;69.30
32107;DHT22;18622;51.998;10.440;2023-07-20T18:54:38;19.80;69.80
32107;DHT22;18622;51.998;10.440;2023-07-20T18:57:06;19.70;70.30
32107;DHT22;18622;51.998;10.440;2023-07-20T18:59:35;19.50;70.70
32107;DHT22;18622;51.998;10.440;2023-07-20T19:02:03;19.40;71.50
32107;DHT22;18622;51.998;10.440;2023-07-20T19:04:31;19.20;71.90